This is the latest recevied weather packets stored in our database for station/object OK0BPL-5. If no packets are shown the sender has not sent any weather packets the latest 10 day(s).
| Time | Temp. | Humidity | Pressure | Rain* | Wind** | Luminosity | Snow |
|---|---|---|---|---|---|---|---|
| 1787825133 | 28.89° C | 39% | 1039.4 hPa | 0 mm | - | 262 W/m² | - |
| 1787825133 | 28.89° C | 39% | 1039.4 hPa | 0 mm | - | 262 W/m² | - |
| 1787824233 | 28.89° C | 40% | 1039.8 hPa | 0 mm | - | 229 W/m² | - |
| 1787824232 | 28.89° C | 40% | 1039.8 hPa | 0 mm | - | 229 W/m² | - |
| 1787823333 | 27.22° C | 45% | 1040.5 hPa | 0 mm | - | 161 W/m² | - |
| 1787823333 | 27.22° C | 45% | 1040.5 hPa | 0 mm | - | 161 W/m² | - |
| 1787822433 | 26.67° C | 46% | 1040.3 hPa | 0 mm | - | 81 W/m² | - |
| 1787822432 | 26.67° C | 46% | 1040.3 hPa | 0 mm | - | 81 W/m² | - |
| 1787821533 | 29.44° C | 39% | 1040.1 hPa | 0 mm | - | 143 W/m² | - |
| 1787821533 | 29.44° C | 39% | 1040.1 hPa | 0 mm | - | 143 W/m² | - |
| 1787820634 | - | - | - | - | - | - | - |
| 1787820633 | 27.78° C | 43% | 1040.2 hPa | 0 mm | - | 114 W/m² | - |
| 1787820633 | 27.78° C | 43% | 1040.2 hPa | 0 mm | - | 114 W/m² | - |
| 1787819732 | 26.11° C | 48% | 1040.3 hPa | 0 mm | - | 124 W/m² | - |
| 1787819732 | 26.11° C | 48% | 1040.3 hPa | 0 mm | - | 124 W/m² | - |
| 1787818832 | 26.11° C | 48% | 1040 hPa | 0 mm | - | 157 W/m² | - |
| 1787818832 | 26.11° C | 48% | 1040 hPa | 0 mm | - | 157 W/m² | - |
| 1787817932 | 26.11° C | 48% | 1040.4 hPa | 0 mm | - | 174 W/m² | - |
| 1787817033 | 24.44° C | 53% | 1040.8 hPa | 0 mm | - | 130 W/m² | - |
| 1787817032 | 24.44° C | 53% | 1040.8 hPa | 0 mm | - | 130 W/m² | - |
| 1787816132 | 23.89° C | 54% | 1040.9 hPa | 0 mm | - | 124 W/m² | - |
| 1787816132 | 23.89° C | 54% | 1040.9 hPa | 0 mm | - | 124 W/m² | - |
| 1787815232 | 23.89° C | 55% | 1041.2 hPa | 0 mm | - | 116 W/m² | - |
| 1787815232 | 23.89° C | 55% | 1041.2 hPa | 0 mm | - | 116 W/m² | - |
| 1787814333 | 22.22° C | 61% | 1041.4 hPa | 0 mm | - | 93 W/m² | - |
* Rain latest hour (hover to see other rain measurements)
** Current wind speed in m/s (hover to see current wind gust speed)